createdAt,value
2019-05-03T00:00:09.016Z,22.73
2019-05-03T00:02:42.795Z,20.40
2019-05-03T00:05:16.251Z,22.33
2019-05-03T00:07:44.792Z,23.77
2019-05-03T00:10:13.981Z,18.10
2019-05-03T00:12:42.518Z,22.47
2019-05-03T00:15:12.665Z,19.17
2019-05-03T00:17:42.014Z,22.80
2019-05-03T00:20:11.676Z,23.50
2019-05-03T00:22:41.898Z,18.00
2019-05-03T00:25:12.738Z,21.00
2019-05-03T00:27:42.656Z,20.07
2019-05-03T00:30:12.019Z,20.60
2019-05-03T00:32:42.596Z,22.47
2019-05-03T00:35:28.474Z,24.60
2019-05-03T00:37:58.593Z,18.20
2019-05-03T00:40:29.766Z,22.53
2019-05-03T00:42:58.794Z,19.40
2019-05-03T00:45:27.427Z,19.37
2019-05-03T00:48:01.987Z,21.80
2019-05-03T00:50:32.028Z,20.60
2019-05-03T00:53:02.280Z,20.20
2019-05-03T00:55:32.779Z,22.17
2019-05-03T00:58:02.452Z,21.57
2019-05-03T01:00:32.334Z,21.93
2019-05-03T01:03:02.217Z,20.70
2019-05-03T01:05:32.959Z,21.83
2019-05-03T01:08:01.931Z,20.40
2019-05-03T01:10:30.588Z,17.40
2019-05-03T01:12:59.074Z,20.20
2019-05-03T01:15:35.172Z,18.67
2019-05-03T01:18:05.349Z,20.53
2019-05-03T01:20:33.820Z,21.67
2019-05-03T01:23:02.302Z,19.97
2019-05-03T01:25:35.167Z,22.00
2019-05-03T01:28:01.582Z,19.60
2019-05-03T01:30:31.939Z,17.40
2019-05-03T01:33:02.664Z,21.47
2019-05-03T01:35:32.295Z,22.37
2019-05-03T01:38:02.581Z,18.53
2019-05-03T01:40:32.639Z,21.00
2019-05-03T01:43:02.217Z,20.27
2019-05-03T01:45:31.857Z,18.10
2019-05-03T01:48:02.153Z,18.00
2019-05-03T01:50:42.562Z,20.23
2019-05-03T01:53:15.505Z,19.10
2019-05-03T01:55:52.922Z,21.23
2019-05-03T01:58:22.754Z,20.67
2019-05-03T02:00:59.865Z,16.97
2019-05-03T02:03:35.398Z,16.43
2019-05-03T02:06:04.014Z,20.07
2019-05-03T02:08:32.670Z,19.33
2019-05-03T02:11:02.212Z,16.93
2019-05-03T02:13:32.122Z,18.80
2019-05-03T02:16:02.268Z,18.47
2019-05-03T02:18:31.808Z,19.60
2019-05-03T02:21:01.644Z,19.23
2019-05-03T02:23:31.934Z,14.00
2019-05-03T02:26:00.597Z,17.30
2019-05-03T02:28:29.140Z,16.10
2019-05-03T02:30:57.615Z,16.17
2019-05-03T02:33:26.120Z,17.67
2019-05-03T02:35:54.628Z,18.23
2019-05-03T02:38:23.596Z,17.97
2019-05-03T02:40:53.260Z,18.53
2019-05-03T02:43:26.713Z,18.03
2019-05-03T02:45:59.489Z,18.70
2019-05-03T02:48:32.488Z,16.80
2019-05-03T02:51:00.949Z,16.17
2019-05-03T02:53:29.420Z,16.50
2019-05-03T02:56:13.795Z,16.53
2019-05-03T02:58:28.140Z,17.50
2019-05-03T03:01:02.054Z,14.97
2019-05-03T03:03:31.621Z,14.60
2019-05-03T03:06:02.023Z,17.80
2019-05-03T03:08:33.621Z,14.93
2019-05-03T03:11:06.280Z,16.23
2019-05-03T03:13:37.452Z,15.40
2019-05-03T03:16:10.148Z,16.07
2019-05-03T03:18:40.087Z,16.53
2019-05-03T03:21:11.975Z,14.87
2019-05-03T03:23:49.298Z,13.30
2019-05-03T03:26:33.329Z,14.90
2019-05-03T03:28:56.359Z,15.60
2019-05-03T03:31:49.502Z,17.97
2019-05-03T03:34:21.197Z,15.10
2019-05-03T03:37:01.061Z,18.13
2019-05-03T03:39:26.046Z,18.57
2019-05-03T03:41:55.879Z,16.27
2019-05-03T03:44:25.703Z,18.67
2019-05-03T03:46:56.178Z,18.20
2019-05-03T03:49:26.966Z,17.00
2019-05-03T03:51:56.472Z,18.00
2019-05-03T03:54:26.050Z,20.27
2019-05-03T03:57:03.395Z,17.77
2019-05-03T03:59:26.825Z,18.57
2019-05-03T04:01:55.698Z,21.40
2019-05-03T04:04:26.194Z,21.50
2019-05-03T04:06:58.569Z,20.33
2019-05-03T04:09:25.817Z,20.33
2019-05-03T04:11:56.736Z,20.13
2019-05-03T04:14:27.218Z,21.53
2019-05-03T04:17:05.934Z,19.10
2019-05-03T04:19:36.419Z,19.27
2019-05-03T04:22:05.854Z,20.90
2019-05-03T04:24:35.313Z,22.10
2019-05-03T04:27:18.698Z,22.17
2019-05-03T04:29:38.085Z,22.37
2019-05-03T04:32:08.292Z,23.20
2019-05-03T04:34:37.404Z,19.10
2019-05-03T04:37:06.196Z,20.33
2019-05-03T04:39:40.418Z,25.30
2019-05-03T04:42:08.944Z,20.53
2019-05-03T04:44:37.538Z,20.77
2019-05-03T04:47:06.987Z,20.80
2019-05-03T04:49:36.378Z,23.47
2019-05-03T04:52:05.915Z,19.07
2019-05-03T04:54:48.335Z,23.07
2019-05-03T04:57:34.326Z,20.57
2019-05-03T04:59:47.251Z,21.90
2019-05-03T05:02:16.170Z,23.23
2019-05-03T05:04:46.397Z,19.63
2019-05-03T05:07:15.687Z,21.57
2019-05-03T05:09:45.888Z,19.67
2019-05-03T05:12:16.204Z,19.87
2019-05-03T05:14:46.032Z,19.27
2019-05-03T05:17:16.694Z,18.73
2019-05-03T05:20:02.150Z,20.47
2019-05-03T05:22:32.394Z,22.57
2019-05-03T05:25:04.440Z,22.00
2019-05-03T05:27:38.440Z,21.40
2019-05-03T05:30:07.993Z,17.70
2019-05-03T05:35:40.542Z,21.23
2019-05-03T05:38:14.963Z,24.50
2019-05-03T05:40:51.969Z,19.73
2019-05-03T05:43:20.825Z,18.90
2019-05-03T05:46:12.061Z,22.53
2019-05-03T05:49:09.834Z,20.37
2019-05-03T05:51:29.641Z,19.50
2019-05-03T05:54:05.213Z,18.80
2019-05-03T05:56:54.365Z,18.77
2019-05-03T05:59:54.455Z,20.60
2019-05-03T06:02:25.344Z,17.13
2019-05-03T06:04:54.423Z,18.40
2019-05-03T06:07:28.145Z,16.37
2019-05-03T06:10:08.275Z,15.30
2019-05-03T06:13:01.355Z,15.97
2019-05-03T06:15:54.829Z,14.67
2019-05-03T06:18:26.967Z,15.20
2019-05-03T06:21:15.372Z,15.03
2019-05-03T06:23:45.629Z,15.57
2019-05-03T06:26:32.074Z,17.17
2019-05-03T06:29:07.113Z,15.70
2019-05-03T06:34:49.847Z,15.77
2019-05-03T06:37:35.315Z,15.47
2019-05-03T06:40:12.110Z,13.63
2019-05-03T06:45:50.928Z,13.37
2019-05-03T06:48:44.766Z,13.87
2019-05-03T06:51:40.056Z,14.93
2019-05-03T06:54:29.918Z,13.10
2019-05-03T06:57:00.156Z,11.90
2019-05-03T06:59:35.920Z,12.27
2019-05-03T07:11:34.893Z,7.37
2019-05-03T07:23:25.213Z,11.03
2019-05-03T07:29:17.269Z,11.20
2019-05-03T07:31:54.776Z,10.33
2019-05-03T07:37:59.299Z,9.93
2019-05-03T07:40:25.195Z,10.53
2019-05-03T07:44:44.966Z,13.67
2019-05-03T07:46:07.278Z,10.80
2019-05-03T07:48:50.172Z,10.27
2019-05-03T07:51:31.817Z,10.30
2019-05-03T07:54:11.459Z,10.37
2019-05-03T07:56:48.601Z,12.40
2019-05-03T07:59:25.001Z,9.13
2019-05-03T08:08:25.556Z,13.03
2019-05-03T08:14:16.114Z,10.93
2019-05-03T08:16:42.569Z,10.80
2019-05-03T08:19:36.231Z,11.37
2019-05-03T08:22:14.920Z,9.43
2019-05-03T08:25:07.777Z,9.93
2019-05-03T08:30:37.242Z,11.77
2019-05-03T08:33:35.461Z,11.40
2019-05-03T08:36:01.000Z,11.07
2019-05-03T08:38:29.850Z,10.77
2019-05-03T08:41:10.350Z,9.60
2019-05-03T08:43:45.180Z,11.57
2019-05-03T08:46:14.728Z,9.20
2019-05-03T08:48:46.187Z,9.13
2019-05-03T08:51:17.617Z,6.80
2019-05-03T08:53:46.265Z,8.83
2019-05-03T08:56:17.318Z,7.90
2019-05-03T08:58:45.944Z,9.03
2019-05-03T09:01:17.535Z,9.37
2019-05-03T09:04:04.991Z,9.53
2019-05-03T09:07:06.326Z,7.43
2019-05-03T09:09:57.455Z,9.23
2019-05-03T09:12:29.177Z,9.67
2019-05-03T09:14:57.896Z,6.63
2019-05-03T09:17:26.524Z,9.83
2019-05-03T09:19:58.965Z,5.97
2019-05-03T09:22:27.451Z,6.33
2019-05-03T09:24:56.063Z,7.07
2019-05-03T09:27:27.103Z,6.33
2019-05-03T09:29:55.957Z,6.67
2019-05-03T09:32:35.030Z,7.50
2019-05-03T09:35:06.287Z,7.80
2019-05-03T09:37:39.124Z,6.70
2019-05-03T09:40:07.762Z,6.33
2019-05-03T09:42:36.291Z,5.70
2019-05-03T09:45:07.061Z,5.47
2019-05-03T09:47:35.731Z,7.80
2019-05-03T09:50:06.108Z,5.73
2019-05-03T09:52:35.531Z,6.23
2019-05-03T09:55:17.731Z,5.80
2019-05-03T09:57:46.481Z,7.23
2019-05-03T10:00:21.129Z,5.97
2019-05-03T10:02:54.819Z,5.00
2019-05-03T10:05:25.580Z,4.77
2019-05-03T10:07:53.741Z,5.63
2019-05-03T10:10:22.269Z,5.50
2019-05-03T10:12:50.763Z,4.20
2019-05-03T10:15:38.884Z,4.60
2019-05-03T10:18:10.975Z,4.73
2019-05-03T10:20:47.671Z,7.07
2019-05-03T10:23:32.795Z,4.37
2019-05-03T10:26:01.277Z,4.27
2019-05-03T10:32:08.629Z,4.20
2019-05-03T10:34:37.322Z,4.47
2019-05-03T10:37:07.866Z,4.20
2019-05-03T10:39:36.372Z,4.60
2019-05-03T10:42:04.990Z,4.93
2019-05-03T10:44:35.771Z,4.73
2019-05-03T10:47:05.492Z,4.73
2019-05-03T10:49:35.185Z,4.37
2019-05-03T10:52:05.869Z,5.83
2019-05-03T10:54:35.764Z,5.57
2019-05-03T10:57:06.409Z,5.07
2019-05-03T10:59:35.570Z,5.10
2019-05-03T11:02:08.539Z,5.10
2019-05-03T11:04:40.040Z,6.47
2019-05-03T11:07:08.657Z,4.53
2019-05-03T11:09:48.535Z,4.77
2019-05-03T11:12:07.449Z,4.97
2019-05-03T11:14:36.302Z,6.17
2019-05-03T11:17:05.669Z,5.07
2019-05-03T11:19:34.752Z,4.30
2019-05-03T11:22:05.258Z,5.13
2019-05-03T11:24:34.934Z,4.30
2019-05-03T11:27:05.361Z,6.57
2019-05-03T11:29:35.557Z,4.53
2019-05-03T11:32:12.053Z,6.27
2019-05-03T11:34:58.221Z,5.67
2019-05-03T11:37:45.310Z,4.33
2019-05-03T11:40:15.682Z,6.07
2019-05-03T11:42:44.913Z,6.90
2019-05-03T11:45:15.219Z,5.17
2019-05-03T11:47:45.765Z,5.37
2019-05-03T11:50:14.919Z,5.90
2019-05-03T11:52:46.808Z,5.87
2019-05-03T11:55:16.001Z,4.50
2019-05-03T11:57:44.974Z,5.63
2019-05-03T12:00:15.896Z,7.07
2019-05-03T12:23:10.651Z,5.20
2019-05-03T12:26:10.845Z,5.80
2019-05-03T12:28:35.254Z,4.37
2019-05-03T12:31:04.889Z,5.27
2019-05-03T12:33:35.446Z,7.17
2019-05-03T12:36:05.380Z,9.90
2019-05-03T12:38:34.979Z,4.57
2019-05-03T12:41:05.584Z,5.73
2019-05-03T12:43:33.996Z,7.17
2019-05-03T12:46:05.156Z,10.40
2019-05-03T12:48:35.434Z,6.53
2019-05-03T12:51:06.232Z,6.77
2019-05-03T12:53:35.434Z,6.43
2019-05-03T12:56:09.810Z,5.30
2019-05-03T12:58:51.131Z,5.20
2019-05-03T13:01:41.845Z,4.40
2019-05-03T13:04:11.783Z,5.20
2019-05-03T13:06:41.983Z,4.03
2019-05-03T13:09:11.031Z,4.67
2019-05-03T13:11:51.795Z,4.90
2019-05-03T13:14:11.560Z,3.57
2019-05-03T13:16:40.304Z,3.03
2019-05-03T13:19:11.550Z,3.23
2019-05-03T13:21:41.868Z,3.53
2019-05-03T13:24:22.479Z,2.90
2019-05-03T13:26:40.802Z,5.27
2019-05-03T13:29:09.492Z,3.53
2019-05-03T13:31:38.160Z,3.40
2019-05-03T13:34:09.760Z,3.43
2019-05-03T13:36:38.346Z,5.50
2019-05-03T13:39:13.327Z,3.70
2019-05-03T13:41:38.030Z,5.60
2019-05-03T13:44:08.315Z,4.37
2019-05-03T13:46:36.907Z,4.17
2019-05-03T13:49:07.261Z,4.77
2019-05-03T13:51:36.003Z,3.90
2019-05-03T13:54:05.537Z,5.23
2019-05-03T13:56:37.090Z,3.73
2019-05-03T13:59:18.307Z,4.20
2019-05-03T14:05:06.768Z,3.60
2019-05-03T14:07:35.543Z,3.70
2019-05-03T14:10:07.231Z,3.83
2019-05-03T14:12:36.081Z,3.13
2019-05-03T14:15:09.419Z,4.47
2019-05-03T14:17:39.337Z,3.00
2019-05-03T14:20:16.402Z,3.13
2019-05-03T14:22:46.716Z,2.83
2019-05-03T14:25:15.330Z,3.23
2019-05-03T14:27:45.604Z,3.50
2019-05-03T14:30:14.724Z,3.47
2019-05-03T14:32:45.148Z,2.47
2019-05-03T14:35:14.380Z,2.37
2019-05-03T14:37:45.882Z,2.87
2019-05-03T14:40:14.880Z,4.07
2019-05-03T14:42:46.037Z,2.50
2019-05-03T14:45:28.631Z,3.70
2019-05-03T14:50:58.342Z,2.63
2019-05-03T14:53:58.263Z,3.33
2019-05-03T14:56:39.544Z,3.53
2019-05-03T15:02:42.472Z,3.17
2019-05-03T15:11:14.772Z,3.80
2019-05-03T15:28:59.637Z,2.30
2019-05-03T15:34:22.951Z,2.40
2019-05-03T15:36:59.425Z,3.73
2019-05-03T15:45:45.227Z,2.60
2019-05-03T15:48:36.280Z,1.60
2019-05-03T15:51:26.381Z,1.57
2019-05-03T15:57:21.019Z,2.47
2019-05-03T15:59:57.257Z,1.87
2019-05-03T16:02:37.090Z,2.00
2019-05-03T16:05:09.521Z,2.10
2019-05-03T16:07:47.500Z,1.63
2019-05-03T16:13:11.856Z,2.10
2019-05-03T16:16:04.261Z,2.23
2019-05-03T16:24:38.721Z,2.17
2019-05-03T16:33:47.032Z,2.13
2019-05-03T16:36:24.901Z,2.23
2019-05-03T16:48:11.412Z,2.17
2019-05-03T16:50:41.545Z,3.07
2019-05-03T16:53:14.841Z,2.40
2019-05-03T16:56:06.098Z,2.40
2019-05-03T16:58:35.298Z,2.20
2019-05-03T17:01:08.787Z,3.63
2019-05-03T17:03:45.921Z,3.23
2019-05-03T17:06:22.207Z,2.93
2019-05-03T17:08:59.270Z,2.40
2019-05-03T17:11:29.591Z,2.60
2019-05-03T17:14:07.505Z,2.30
2019-05-03T17:16:36.364Z,2.03
2019-05-03T17:19:17.298Z,2.63
2019-05-03T17:21:56.715Z,2.60
2019-05-03T17:24:44.458Z,2.57
2019-05-03T17:30:35.141Z,2.37
2019-05-03T17:33:08.243Z,5.60
2019-05-03T17:35:49.073Z,3.10
2019-05-03T17:38:18.423Z,5.30
2019-05-03T17:41:06.132Z,3.17
2019-05-03T17:43:39.136Z,3.07
2019-05-03T17:46:15.010Z,2.70
2019-05-03T17:48:45.263Z,3.40
2019-05-03T17:51:35.125Z,4.37
2019-05-03T17:54:21.747Z,3.83
2019-05-03T17:56:58.878Z,3.37
2019-05-03T17:59:32.097Z,2.83
2019-05-03T18:02:27.547Z,3.50
2019-05-03T18:05:14.654Z,2.50
2019-05-03T18:08:05.948Z,3.70
2019-05-03T18:10:39.142Z,2.60
2019-05-03T18:13:09.435Z,2.57
2019-05-03T18:15:38.156Z,2.13
2019-05-03T18:18:54.790Z,3.33
2019-05-03T18:20:38.912Z,2.53
2019-05-03T18:23:18.236Z,3.13
2019-05-03T18:25:56.390Z,2.40
2019-05-03T18:28:25.170Z,2.83
2019-05-03T18:30:56.020Z,3.07
2019-05-03T18:33:24.850Z,2.10
2019-05-03T18:35:58.606Z,2.80
2019-05-03T18:38:30.193Z,3.10
2019-05-03T18:40:58.912Z,2.30
2019-05-03T18:43:41.024Z,2.40
2019-05-03T18:46:26.365Z,2.40
2019-05-03T18:48:56.559Z,2.33
2019-05-03T18:51:25.314Z,2.50
2019-05-03T18:53:55.653Z,2.70
2019-05-03T18:56:25.158Z,2.43
2019-05-03T18:58:54.342Z,2.70
2019-05-03T19:01:25.166Z,2.57
2019-05-03T19:03:55.449Z,2.40
2019-05-03T19:06:26.318Z,2.97
2019-05-03T19:09:16.021Z,2.70
2019-05-03T19:11:51.872Z,3.20
2019-05-03T19:14:25.504Z,4.17
2019-05-03T19:17:04.988Z,4.20
2019-05-03T19:19:40.057Z,4.33
2019-05-03T19:22:09.860Z,3.57
2019-05-03T19:24:38.540Z,2.90
2019-05-03T19:27:07.961Z,3.00
2019-05-03T19:29:36.904Z,3.63
2019-05-03T19:32:06.261Z,4.57
2019-05-03T19:34:47.350Z,8.17
2019-05-03T19:37:07.796Z,9.77
2019-05-03T19:39:39.417Z,5.83
2019-05-03T19:42:08.278Z,3.33
2019-05-03T19:44:37.108Z,3.27
2019-05-03T19:47:06.819Z,2.83
2019-05-03T19:53:56.131Z,2.93
2019-05-03T19:58:59.955Z,2.77
2019-05-03T20:04:32.561Z,5.67
2019-05-03T20:10:22.234Z,4.67
2019-05-03T20:12:50.652Z,4.10
2019-05-03T20:15:26.794Z,3.63
2019-05-03T20:18:00.198Z,3.50
2019-05-03T20:21:07.551Z,3.47
2019-05-03T20:23:40.032Z,3.50
2019-05-03T20:26:16.381Z,3.40
2019-05-03T20:31:42.278Z,4.13
2019-05-03T20:34:32.907Z,5.80
2019-05-03T20:37:01.730Z,3.47
2019-05-03T20:39:30.500Z,3.57
2019-05-03T20:42:15.369Z,3.03
2019-05-03T20:47:57.908Z,3.43
2019-05-03T20:50:35.470Z,2.80
2019-05-03T20:53:11.691Z,3.17
2019-05-03T21:02:01.660Z,3.20
2019-05-03T21:04:42.475Z,4.07
2019-05-03T21:07:24.666Z,3.80
2019-05-03T21:09:54.774Z,2.63
2019-05-03T21:12:26.504Z,2.40
2019-05-03T21:15:15.463Z,2.53
2019-05-03T21:17:50.426Z,2.70
2019-05-03T21:20:29.324Z,3.40
2019-05-03T21:22:57.943Z,4.97
2019-05-03T21:26:05.110Z,4.67
2019-05-03T21:28:22.925Z,4.23
2019-05-03T21:30:54.996Z,5.47
2019-05-03T21:33:25.738Z,3.67
2019-05-03T21:35:55.658Z,4.07
2019-05-03T21:38:24.638Z,4.10
2019-05-03T21:40:54.666Z,4.37
2019-05-03T21:43:34.988Z,6.63
2019-05-03T21:46:20.160Z,3.67
2019-05-03T21:48:50.435Z,4.27
2019-05-03T21:51:24.511Z,3.30
2019-05-03T21:53:53.270Z,4.73
2019-05-03T21:56:25.065Z,3.57
2019-05-03T21:58:59.962Z,4.57
2019-05-03T22:01:28.701Z,4.30
2019-05-03T22:03:57.398Z,4.90
2019-05-03T22:06:44.374Z,4.37
2019-05-03T22:09:10.820Z,4.37
2019-05-03T22:11:39.433Z,7.97
2019-05-03T22:14:09.825Z,4.27
2019-05-03T22:16:44.882Z,3.63
2019-05-03T22:19:16.343Z,4.10
2019-05-03T22:21:45.741Z,4.20
2019-05-03T22:27:08.494Z,5.50
2019-05-03T22:29:38.776Z,6.23
2019-05-03T22:32:07.511Z,4.87
2019-05-03T22:34:36.214Z,4.53
2019-05-03T22:37:04.804Z,5.70
2019-05-03T22:39:33.373Z,4.13
2019-05-03T22:42:01.962Z,4.20
2019-05-03T22:44:30.455Z,4.20
2019-05-03T22:47:01.468Z,6.57
2019-05-03T22:49:38.690Z,4.67
2019-05-03T22:52:34.985Z,4.27
2019-05-03T22:57:51.957Z,4.20
2019-05-03T23:00:18.214Z,4.23
2019-05-03T23:02:46.770Z,4.93
2019-05-03T23:05:45.568Z,4.90
2019-05-03T23:08:15.737Z,4.57
2019-05-03T23:10:48.751Z,3.70
2019-05-03T23:13:17.332Z,3.90
2019-05-03T23:15:46.497Z,4.43
2019-05-03T23:18:14.992Z,4.77
2019-05-03T23:20:48.085Z,4.37
2019-05-03T23:23:35.734Z,4.10
2019-05-03T23:26:05.595Z,4.57
2019-05-03T23:28:35.628Z,4.40
2019-05-03T23:31:05.390Z,6.30
2019-05-03T23:33:34.524Z,4.57
2019-05-03T23:36:04.573Z,5.37
2019-05-03T23:38:37.618Z,6.13
2019-05-03T23:41:06.337Z,5.20
2019-05-03T23:44:00.270Z,5.57
2019-05-03T23:46:30.969Z,5.03
2019-05-03T23:48:59.792Z,6.13
2019-05-03T23:51:46.375Z,4.80
2019-05-03T23:54:25.745Z,5.30
2019-05-03T23:56:54.711Z,6.37
2019-05-03T23:59:23.501Z,5.20
